createdAt,value
2023-01-03T00:02:13.106Z,100742.50
2023-01-03T00:04:44.494Z,100742.50
2023-01-03T00:07:14.137Z,100744.16
2023-01-03T00:09:40.742Z,100741.63
2023-01-03T00:12:31.128Z,100732.28
2023-01-03T00:14:59.394Z,100730.44
2023-01-03T00:17:26.219Z,100725.31
2023-01-03T00:19:52.841Z,100728.63
2023-01-03T00:22:19.873Z,100732.00
2023-01-03T00:24:48.292Z,100725.16
2023-01-03T00:27:16.071Z,100725.16
2023-01-03T00:29:43.219Z,100728.72
2023-01-03T00:32:10.789Z,100728.94
2023-01-03T00:34:37.436Z,100724.13
2023-01-03T00:37:04.366Z,100721.75
2023-01-03T00:39:31.036Z,100722.78
2023-01-03T00:41:57.633Z,100728.97
2023-01-03T00:44:24.349Z,100724.81
2023-01-03T00:46:50.889Z,100723.19
2023-01-03T00:49:17.582Z,100719.97
2023-01-03T00:51:44.766Z,100709.88
2023-01-03T00:54:12.673Z,100704.09
2023-01-03T00:56:41.939Z,100699.13
2023-01-03T00:59:09.313Z,100714.69
2023-01-03T01:01:47.778Z,100707.06
2023-01-03T01:04:21.968Z,100696.97
2023-01-03T01:06:52.264Z,100703.19
2023-01-03T01:09:26.486Z,100704.97
2023-01-03T01:11:53.643Z,100703.41
2023-01-03T01:14:23.139Z,100706.94
2023-01-03T01:16:58.113Z,100693.34
2023-01-03T01:19:28.348Z,100704.38
2023-01-03T01:21:55.199Z,100694.91
2023-01-03T01:24:22.469Z,100689.78
2023-01-03T01:26:49.469Z,100696.72
2023-01-03T01:29:17.302Z,100707.72
2023-01-03T01:31:45.433Z,100698.38
2023-01-03T01:34:12.861Z,100695.97
2023-01-03T01:36:42.147Z,100701.13
2023-01-03T01:39:13.946Z,100701.13
2023-01-03T01:42:01.513Z,100692.53
2023-01-03T01:50:17.968Z,100674.56
2023-01-03T01:52:53.467Z,100670.28
2023-01-03T01:55:35.689Z,100666.84
2023-01-03T01:58:02.983Z,100666.06
2023-01-03T02:00:30.065Z,100673.72
2023-01-03T02:02:56.884Z,100671.94
2023-01-03T02:05:23.803Z,100667.72
2023-01-03T02:07:51.877Z,100665.97
2023-01-03T02:10:23.178Z,100660.88
2023-01-03T02:13:06.084Z,100658.38
2023-01-03T02:24:19.995Z,100652.16
2023-01-03T02:26:56.965Z,100656.03
2023-01-03T02:32:21.146Z,100646.41
2023-01-03T02:37:43.191Z,100634.03
2023-01-03T02:40:28.513Z,100637.00
2023-01-03T02:51:10.756Z,100623.06
2023-01-03T02:53:43.331Z,100626.59
2023-01-03T02:56:15.600Z,100618.09
2023-01-03T02:58:47.031Z,100610.53
2023-01-03T03:01:17.682Z,100606.50
2023-01-03T03:03:45.315Z,100601.38
2023-01-03T03:08:49.998Z,100608.44
2023-01-03T03:11:36.669Z,100598.47
2023-01-03T03:14:25.835Z,100605.28
2023-01-03T03:16:55.093Z,100595.97
2023-01-03T03:22:18.796Z,100578.94
2023-01-03T03:24:52.803Z,100573.81
2023-01-03T03:27:43.829Z,100567.00
2023-01-03T03:30:15.329Z,100561.81
2023-01-03T03:32:44.411Z,100554.97
2023-01-03T03:35:14.557Z,100541.28
2023-01-03T03:37:45.199Z,100531.88
2023-01-03T03:40:32.107Z,100538.63
2023-01-03T03:43:28.921Z,100552.03
2023-01-03T03:51:23.828Z,100556.81
2023-01-03T03:53:53.572Z,100544.53
2023-01-03T03:56:24.612Z,100542.03
2023-01-03T03:58:56.570Z,100536.66
2023-01-03T04:01:25.407Z,100541.66
2023-01-03T04:03:56.243Z,100544.28
2023-01-03T04:06:28.518Z,100535.66
2023-01-03T04:08:55.176Z,100536.56
2023-01-03T04:11:21.736Z,100534.91
2023-01-03T04:13:48.349Z,100523.75
2023-01-03T04:16:14.960Z,100518.59
2023-01-03T04:18:41.611Z,100524.47
2023-01-03T04:21:08.208Z,100527.75
2023-01-03T04:23:34.767Z,100520.66
2023-01-03T04:26:01.378Z,100529.81
2023-01-03T04:28:27.924Z,100525.31
2023-01-03T04:30:54.545Z,100514.75
2023-01-03T04:33:21.099Z,100520.75
2023-01-03T04:35:47.702Z,100513.00
2023-01-03T04:38:14.255Z,100511.38
2023-01-03T04:40:40.809Z,100509.81
2023-01-03T04:43:27.273Z,100499.50
2023-01-03T04:45:53.885Z,100506.34
2023-01-03T04:48:20.687Z,100495.41
2023-01-03T04:50:56.950Z,100495.47
2023-01-03T04:53:25.445Z,100486.25
2023-01-03T04:55:53.443Z,100482.97
2023-01-03T04:58:20.766Z,100464.94
2023-01-03T05:00:47.780Z,100472.75
2023-01-03T05:03:14.500Z,100462.38
2023-01-03T05:05:41.159Z,100460.84
2023-01-03T05:08:09.697Z,100469.53
2023-01-03T05:10:39.007Z,100463.63
2023-01-03T05:13:05.697Z,100469.66
2023-01-03T05:15:35.919Z,100473.28
2023-01-03T05:18:02.584Z,100475.00
2023-01-03T05:20:49.360Z,100463.94
2023-01-03T05:23:37.539Z,100464.06
2023-01-03T05:26:08.009Z,100454.66
2023-01-03T05:28:34.516Z,100458.03
2023-01-03T05:31:01.956Z,100464.06
2023-01-03T05:33:28.875Z,100464.13
2023-01-03T05:35:55.952Z,100446.25
2023-01-03T05:38:24.022Z,100437.84
2023-01-03T05:40:51.339Z,100431.00
2023-01-03T05:43:18.087Z,100442.19
2023-01-03T05:45:51.149Z,100431.97
2023-01-03T05:48:18.373Z,100441.53
2023-01-03T05:50:45.801Z,100429.47
2023-01-03T05:53:12.593Z,100441.59
2023-01-03T05:55:39.687Z,100430.53
2023-01-03T05:58:07.441Z,100422.06
2023-01-03T06:00:35.056Z,100427.34
2023-01-03T06:03:01.671Z,100427.41
2023-01-03T06:05:28.452Z,100424.94
2023-01-03T06:07:55.146Z,100431.03
2023-01-03T06:10:21.812Z,100423.28
2023-01-03T06:12:48.576Z,100416.44
2023-01-03T06:15:15.192Z,100412.19
2023-01-03T06:18:01.663Z,100412.19
2023-01-03T06:20:29.016Z,100414.81
2023-01-03T06:22:56.130Z,100413.25
2023-01-03T06:25:23.074Z,100410.69
2023-01-03T06:27:49.767Z,100403.13
2023-01-03T06:30:16.396Z,100398.81
2023-01-03T06:32:45.137Z,100391.16
2023-01-03T06:35:11.974Z,100393.03
2023-01-03T06:37:39.045Z,100390.47
2023-01-03T06:40:06.432Z,100391.22
2023-01-03T06:42:50.017Z,100388.03
2023-01-03T06:45:36.513Z,100377.69
2023-01-03T06:48:25.068Z,100367.44
2023-01-03T06:51:11.731Z,100375.94
2023-01-03T06:53:41.193Z,100372.56
2023-01-03T06:56:08.640Z,100370.03
2023-01-03T06:58:36.257Z,100364.25
2023-01-03T07:01:04.267Z,100364.34
2023-01-03T07:03:31.779Z,100364.44
2023-01-03T07:05:58.322Z,100354.19
2023-01-03T07:08:24.913Z,100364.44
2023-01-03T07:10:51.496Z,100354.19
2023-01-03T07:13:38.101Z,100342.28
2023-01-03T07:16:04.931Z,100339.72
2023-01-03T07:18:31.885Z,100344.03
2023-01-03T07:20:58.459Z,100340.75
2023-01-03T07:23:25.183Z,100342.56
2023-01-03T07:25:55.262Z,100339.19
2023-01-03T07:28:21.816Z,100344.50
2023-01-03T07:30:48.460Z,100342.84
2023-01-03T07:33:16.609Z,100337.16
2023-01-03T07:35:43.550Z,100336.31
2023-01-03T07:38:11.394Z,100334.78
2023-01-03T07:40:38.468Z,100328.06
2023-01-03T07:43:24.956Z,100322.38
2023-01-03T07:45:51.595Z,100333.63
2023-01-03T07:48:18.268Z,100334.63
2023-01-03T07:50:44.918Z,100336.53
2023-01-03T07:53:17.148Z,100330.66
2023-01-03T07:55:45.526Z,100327.41
2023-01-03T07:58:12.704Z,100312.13
2023-01-03T08:00:40.154Z,100324.28
2023-01-03T08:03:10.875Z,100318.53
2023-01-03T08:05:38.412Z,100321.19
2023-01-03T08:08:05.567Z,100317.91
2023-01-03T08:10:52.121Z,100314.50
2023-01-03T08:13:19.074Z,100312.97
2023-01-03T08:18:25.368Z,100313.31
2023-01-03T08:20:55.161Z,100309.91
2023-01-03T08:23:22.496Z,100310.06
2023-01-03T08:25:49.096Z,100293.94
2023-01-03T08:28:16.276Z,100303.50
2023-01-03T08:30:47.246Z,100299.25
2023-01-03T08:33:15.937Z,100301.97
2023-01-03T08:35:47.283Z,100293.59
2023-01-03T08:38:18.775Z,100294.44
2023-01-03T08:40:46.630Z,100291.28
2023-01-03T08:43:15.737Z,100294.84
2023-01-03T08:45:42.460Z,100296.66
2023-01-03T08:48:10.491Z,100294.25
2023-01-03T08:50:38.041Z,100289.25
2023-01-03T08:53:05.889Z,100287.75
2023-01-03T08:55:33.870Z,100281.94
2023-01-03T08:58:00.753Z,100277.84
2023-01-03T09:00:28.392Z,100290.88
2023-01-03T09:02:59.934Z,100285.91
2023-01-03T09:05:27.568Z,100278.28
2023-01-03T09:07:55.165Z,100276.72
2023-01-03T09:10:22.919Z,100275.91
2023-01-03T09:12:50.088Z,100276.91
2023-01-03T09:15:16.719Z,100270.94
2023-01-03T09:17:45.315Z,100272.75
2023-01-03T09:20:12.927Z,100272.03
2023-01-03T09:22:40.267Z,100254.88
2023-01-03T09:25:07.451Z,100270.44
2023-01-03T09:27:34.294Z,100273.94
2023-01-03T09:30:01.144Z,100265.50
2023-01-03T09:32:27.788Z,100268.16
2023-01-03T09:34:54.336Z,100272.47
2023-01-03T09:37:20.955Z,100267.47
2023-01-03T09:39:47.508Z,100268.38
2023-01-03T09:42:40.731Z,100261.59
2023-01-03T09:45:11.589Z,100263.44
2023-01-03T09:47:39.880Z,100261.78
2023-01-03T09:50:29.365Z,100267.88
2023-01-03T09:53:18.229Z,100254.13
2023-01-03T09:58:41.451Z,100249.09
2023-01-03T10:02:00.661Z,100246.53
2023-01-03T10:16:07.238Z,100221.13
2023-01-03T10:19:13.695Z,100228.84
2023-01-03T10:24:29.870Z,100228.94
2023-01-03T10:27:06.794Z,100233.31
2023-01-03T10:29:33.503Z,100219.63
2023-01-03T10:34:38.567Z,100220.56
2023-01-03T10:37:24.075Z,100218.91
2023-01-03T10:40:02.488Z,100212.13
2023-01-03T10:42:33.017Z,100212.19
2023-01-03T10:45:05.489Z,100218.22
2023-01-03T10:47:32.133Z,100226.00
2023-01-03T10:50:00.716Z,100221.75
2023-01-03T10:52:38.920Z,100214.00
2023-01-03T10:55:16.988Z,100213.22
2023-01-03T10:58:00.353Z,100213.25
2023-01-03T11:06:09.727Z,100206.50
2023-01-03T11:11:32.987Z,100202.22
2023-01-03T11:14:24.242Z,100191.00
2023-01-03T11:17:01.643Z,100195.31
2023-01-03T11:19:31.621Z,100197.06
2023-01-03T11:41:56.559Z,100148.91
2023-01-03T11:53:31.138Z,100111.09
2023-01-03T11:58:56.325Z,100114.69
2023-01-03T12:04:53.851Z,100110.31
2023-01-03T12:07:47.597Z,100100.84
2023-01-03T12:10:23.519Z,100103.44
2023-01-03T12:13:25.270Z,100095.72
2023-01-03T12:16:10.785Z,100088.78
2023-01-03T12:18:55.187Z,100088.81
2023-01-03T12:21:33.829Z,100087.13
2023-01-03T12:24:21.208Z,100083.63
2023-01-03T12:27:02.282Z,100071.59
2023-01-03T12:29:44.223Z,100063.88
2023-01-03T12:32:18.454Z,100068.19
2023-01-03T12:37:33.806Z,100057.84
2023-01-03T12:40:06.769Z,100051.81
2023-01-03T12:42:46.384Z,100052.72
2023-01-03T12:50:42.868Z,100041.53
2023-01-03T12:53:35.000Z,100044.09
2023-01-03T13:07:13.398Z,100004.47
2023-01-03T13:09:45.321Z,99995.88
2023-01-03T13:17:31.313Z,99972.63
2023-01-03T13:22:54.918Z,99970.03
2023-01-03T13:25:40.153Z,99971.75
2023-01-03T13:28:29.807Z,99963.16
2023-01-03T13:37:09.408Z,99946.78
2023-01-03T13:47:50.034Z,99927.75
2023-01-03T14:07:16.734Z,99879.44
2023-01-03T14:12:52.175Z,99882.91
2023-01-03T14:15:26.048Z,99872.53
2023-01-03T14:17:59.954Z,99872.56
2023-01-03T14:20:32.985Z,99866.50
2023-01-03T14:23:31.292Z,99865.63
2023-01-03T14:25:54.473Z,99857.84
2023-01-03T14:31:03.198Z,99853.53
2023-01-03T14:33:35.745Z,99837.13
2023-01-03T14:38:48.763Z,99835.41
2023-01-03T14:41:30.158Z,99841.44
2023-01-03T14:46:53.969Z,99831.91
2023-01-03T14:49:24.660Z,99852.63
2023-01-03T14:52:03.635Z,99849.16
2023-01-03T14:54:30.737Z,99849.16
2023-01-03T14:56:59.779Z,99847.44
2023-01-03T14:59:26.889Z,99843.09
2023-01-03T15:01:53.691Z,99833.63
2023-01-03T15:04:24.495Z,99821.56
2023-01-03T15:07:06.566Z,99818.97
2023-01-03T15:09:39.565Z,99830.22
2023-01-03T15:12:06.730Z,99817.25
2023-01-03T15:14:36.508Z,99807.75
2023-01-03T15:17:12.011Z,99818.09
2023-01-03T15:19:47.539Z,99802.56
2023-01-03T15:22:18.069Z,99802.56
2023-01-03T15:24:47.241Z,99800.84
2023-01-03T15:33:00.431Z,99804.28
2023-01-03T15:38:08.408Z,99806.03
2023-01-03T15:40:35.104Z,99793.91
2023-01-03T15:43:19.782Z,99797.38
2023-01-03T15:45:58.971Z,99772.31
2023-01-03T15:48:26.519Z,99774.97
2023-01-03T15:50:55.952Z,99762.03
2023-01-03T15:53:29.480Z,99762.84
2023-01-03T15:56:01.819Z,99750.78
2023-01-03T15:58:30.632Z,99749.03
2023-01-03T16:00:59.640Z,99755.09
2023-01-03T16:03:30.187Z,99747.28
2023-01-03T16:05:56.987Z,99741.25
2023-01-03T16:11:03.259Z,99736.75
2023-01-03T16:13:37.077Z,99731.69
2023-01-03T16:16:04.165Z,99716.16
2023-01-03T16:18:37.491Z,99716.22
2023-01-03T16:21:06.088Z,99708.44
2023-01-03T16:23:34.946Z,99716.16
2023-01-03T16:26:01.529Z,99705.84
2023-01-03T16:28:28.178Z,99698.09
2023-01-03T16:33:37.220Z,99704.97
2023-01-03T16:36:05.552Z,99695.53
2023-01-03T16:38:34.092Z,99682.59
2023-01-03T16:41:06.244Z,99680.88
2023-01-03T16:43:33.017Z,99681.75
2023-01-03T16:45:59.910Z,99697.28
2023-01-03T16:48:33.514Z,99676.59
2023-01-03T16:51:00.194Z,99674.00
2023-01-03T16:53:42.438Z,99673.16
2023-01-03T16:56:11.617Z,99674.84
2023-01-03T16:58:38.600Z,99671.38
2023-01-03T17:01:05.403Z,99662.78
2023-01-03T17:03:35.378Z,99667.94
2023-01-03T17:06:07.221Z,99681.69
2023-01-03T17:11:09.822Z,99663.56
2023-01-03T17:13:42.304Z,99669.63
2023-01-03T17:16:15.404Z,99662.69
2023-01-03T17:18:43.259Z,99662.69
2023-01-03T17:21:32.933Z,99653.22
2023-01-03T17:24:01.698Z,99647.22
2023-01-03T17:26:31.444Z,99655.78
2023-01-03T17:29:00.902Z,99646.25
2023-01-03T17:31:28.548Z,99650.56
2023-01-03T17:33:55.561Z,99640.19
2023-01-03T17:36:26.486Z,99630.69
2023-01-03T17:38:59.920Z,99635.78
2023-01-03T17:41:27.100Z,99622.84
2023-01-03T17:43:54.691Z,99615.94
2023-01-03T17:46:43.624Z,99628.84
2023-01-03T17:49:30.862Z,99617.63
2023-01-03T17:52:01.659Z,99612.47
2023-01-03T17:54:30.557Z,99605.56
2023-01-03T17:56:59.257Z,99603.75
2023-01-03T17:59:26.946Z,99602.03
2023-01-03T18:01:54.743Z,99594.22
2023-01-03T18:04:22.544Z,99600.25
2023-01-03T18:06:56.344Z,99599.38
2023-01-03T18:09:26.053Z,99588.16
2023-01-03T18:11:53.325Z,99596.75
2023-01-03T18:14:20.628Z,99595.84
2023-01-03T18:16:53.173Z,99588.09
2023-01-03T18:19:21.566Z,99587.25
2023-01-03T18:21:48.767Z,99581.19
2023-01-03T18:24:19.419Z,99584.59
2023-01-03T18:26:50.105Z,99576.00
2023-01-03T18:29:18.508Z,99569.91
2023-01-03T18:31:46.839Z,99567.31
2023-01-03T18:34:14.800Z,99581.06
2023-01-03T18:36:45.435Z,99565.47
2023-01-03T18:39:16.064Z,99564.59
2023-01-03T18:41:43.510Z,99560.34
2023-01-03T18:44:19.801Z,99548.25
2023-01-03T18:46:47.812Z,99561.19
2023-01-03T18:49:15.114Z,99568.94
2023-01-03T18:51:41.872Z,99555.09
2023-01-03T18:54:10.913Z,99555.06
2023-01-03T18:56:41.121Z,99554.16
2023-01-03T18:59:18.782Z,99546.41
2023-01-03T19:01:45.555Z,99552.41
2023-01-03T19:04:12.478Z,99537.72
2023-01-03T19:06:42.981Z,99529.91
2023-01-03T19:09:20.798Z,99526.47
2023-01-03T19:11:48.481Z,99520.41
2023-01-03T19:14:15.107Z,99529.88
2023-01-03T19:16:41.914Z,99527.31
2023-01-03T19:19:09.739Z,99523.75
2023-01-03T19:21:39.939Z,99515.13
2023-01-03T19:24:19.870Z,99511.63
2023-01-03T19:26:52.897Z,99518.47
2023-01-03T19:29:24.246Z,99497.75
2023-01-03T19:31:53.721Z,99509.78
2023-01-03T19:34:23.540Z,99499.41
2023-01-03T19:36:50.680Z,99499.50
2023-01-03T19:39:24.420Z,99502.84
2023-01-03T19:42:17.323Z,99509.69
2023-01-03T19:44:44.227Z,99509.69
2023-01-03T19:47:14.612Z,99500.22
2023-01-03T19:49:42.461Z,99506.19
2023-01-03T19:52:09.088Z,99500.97
2023-01-03T19:54:35.775Z,99493.19
2023-01-03T19:57:02.618Z,99504.38
2023-01-03T20:02:31.034Z,99495.72
2023-01-03T20:04:57.858Z,99501.72
2023-01-03T20:07:24.582Z,99495.63
2023-01-03T20:09:51.194Z,99493.81
2023-01-03T20:12:24.219Z,99497.19
2023-01-03T20:14:53.071Z,99502.34
2023-01-03T20:17:23.073Z,99512.72
2023-01-03T20:19:50.491Z,99505.06
2023-01-03T20:22:53.471Z,99502.28
2023-01-03T20:25:19.347Z,99509.97
2023-01-03T20:27:46.827Z,99509.97
2023-01-03T20:30:16.143Z,99507.31
2023-01-03T20:32:43.308Z,99507.31
2023-01-03T20:35:56.368Z,99505.53
2023-01-03T20:38:02.845Z,99497.66
2023-01-03T20:40:29.682Z,99500.31
2023-01-03T20:42:57.564Z,99500.31
2023-01-03T20:45:24.234Z,99492.47
2023-01-03T20:47:53.039Z,99493.19
2023-01-03T20:50:22.621Z,99486.31
2023-01-03T20:52:49.631Z,99490.56
2023-01-03T20:55:18.626Z,99481.03
2023-01-03T20:57:45.363Z,99484.44
2023-01-03T21:00:31.414Z,99484.47
2023-01-03T21:02:58.554Z,99481.78
2023-01-03T21:05:25.681Z,99499.91
2023-01-03T21:08:12.183Z,99487.78
2023-01-03T21:10:41.839Z,99486.03
2023-01-03T21:13:09.719Z,99487.78
2023-01-03T21:15:37.969Z,99494.69
2023-01-03T21:18:06.483Z,99473.06
2023-01-03T21:20:33.546Z,99473.06
2023-01-03T21:23:00.225Z,99484.34
2023-01-03T21:25:30.380Z,99480.00
2023-01-03T21:27:57.182Z,99476.56
2023-01-03T21:30:23.972Z,99480.00
2023-01-03T21:32:51.241Z,99491.22
2023-01-03T21:35:20.162Z,99481.75
2023-01-03T21:37:47.852Z,99487.78
2023-01-03T21:40:20.992Z,99499.91
2023-01-03T21:43:05.447Z,99486.91
2023-01-03T21:45:42.974Z,99496.41
2023-01-03T21:48:12.634Z,99487.75
2023-01-03T21:50:44.792Z,99496.34
2023-01-03T21:53:14.448Z,99503.25
2023-01-03T21:55:41.316Z,99496.34
2023-01-03T21:58:07.936Z,99487.72
2023-01-03T22:00:34.543Z,99478.94
2023-01-03T22:03:21.128Z,99480.69
2023-01-03T22:05:47.748Z,99481.56
2023-01-03T22:08:14.326Z,99497.94
2023-01-03T22:10:42.267Z,99501.38
2023-01-03T22:13:10.581Z,99502.25
2023-01-03T22:15:38.994Z,99501.41
2023-01-03T22:18:09.278Z,99498.78
2023-01-03T22:20:38.853Z,99496.22
2023-01-03T22:23:06.848Z,99490.94
2023-01-03T22:25:33.665Z,99494.53
2023-01-03T22:28:00.388Z,99485.75
2023-01-03T22:30:27.302Z,99479.66
2023-01-03T22:32:57.395Z,99487.44
2023-01-03T22:35:24.726Z,99478.75
2023-01-03T22:37:51.438Z,99495.13
2023-01-03T22:40:18.383Z,99479.56
2023-01-03T22:42:44.913Z,99485.59
2023-01-03T22:45:12.105Z,99484.78
2023-01-03T22:47:38.942Z,99489.00
2023-01-03T22:50:07.462Z,99489.03
2023-01-03T22:52:35.583Z,99482.91
2023-01-03T22:55:02.309Z,99496.00
2023-01-03T22:57:28.872Z,99512.41
2023-01-03T22:59:55.495Z,99491.63
2023-01-03T23:02:28.106Z,99501.03
2023-01-03T23:04:55.768Z,99488.94
2023-01-03T23:07:22.385Z,99494.13
2023-01-03T23:09:48.942Z,99506.19
2023-01-03T23:12:35.436Z,99507.06
2023-01-03T23:15:02.448Z,99502.72
2023-01-03T23:17:48.891Z,99497.53
2023-01-03T23:20:15.428Z,99500.13
2023-01-03T23:22:43.722Z,99503.59
2023-01-03T23:25:10.332Z,99504.44
2023-01-03T23:27:36.992Z,99506.16
2023-01-03T23:30:04.102Z,99500.97
2023-01-03T23:32:32.533Z,99496.63
2023-01-03T23:34:59.108Z,99498.38
2023-01-03T23:37:26.564Z,99495.75
2023-01-03T23:39:53.181Z,99487.16
2023-01-03T23:42:19.830Z,99504.38
2023-01-03T23:44:46.535Z,99498.38
2023-01-03T23:47:13.188Z,99500.09
2023-01-03T23:49:40.081Z,99500.97
2023-01-03T23:52:06.673Z,99499.31
2023-01-03T23:54:33.243Z,99494.13
2023-01-03T23:56:59.824Z,99511.34
2023-01-03T23:59:26.355Z,99497.47
